sensor_id;sensor_type;location;lat;lon;timestamp;P1;durP1;ratioP1;P2;durP2;ratioP2
6388;SDS011;3227;42.654;23.360;2023-08-20T00:00:53;9.10;;;6.15;;
6388;SDS011;3227;42.654;23.360;2023-08-20T00:03:21;11.48;;;6.43;;
6388;SDS011;3227;42.654;23.360;2023-08-20T00:05:48;10.05;;;6.35;;
6388;SDS011;3227;42.654;23.360;2023-08-20T00:08:15;10.85;;;6.47;;
6388;SDS011;3227;42.654;23.360;2023-08-20T00:10:43;9.95;;;6.20;;
6388;SDS011;3227;42.654;23.360;2023-08-20T00:13:10;9.68;;;6.63;;
6388;SDS011;3227;42.654;23.360;2023-08-20T00:15:37;10.35;;;6.85;;
6388;SDS011;3227;42.654;23.360;2023-08-20T00:18:04;11.90;;;6.82;;
6388;SDS011;3227;42.654;23.360;2023-08-20T00:20:32;10.68;;;6.90;;
6388;SDS011;3227;42.654;23.360;2023-08-20T00:23:00;10.15;;;6.65;;
6388;SDS011;3227;42.654;23.360;2023-08-20T00:25:28;9.75;;;6.70;;
6388;SDS011;3227;42.654;23.360;2023-08-20T00:27:56;15.30;;;7.38;;
6388;SDS011;3227;42.654;23.360;2023-08-20T00:30:23;16.30;;;7.32;;
6388;SDS011;3227;42.654;23.360;2023-08-20T00:32:49;10.80;;;6.50;;
6388;SDS011;3227;42.654;23.360;2023-08-20T00:35:16;10.38;;;7.45;;
6388;SDS011;3227;42.654;23.360;2023-08-20T00:37:43;9.52;;;6.50;;
6388;SDS011;3227;42.654;23.360;2023-08-20T00:40:11;10.63;;;6.90;;
6388;SDS011;3227;42.654;23.360;2023-08-20T00:42:38;13.45;;;7.05;;
6388;SDS011;3227;42.654;23.360;2023-08-20T00:45:06;12.23;;;7.15;;
6388;SDS011;3227;42.654;23.360;2023-08-20T00:47:34;15.55;;;8.10;;
6388;SDS011;3227;42.654;23.360;2023-08-20T00:50:01;12.98;;;7.35;;
6388;SDS011;3227;42.654;23.360;2023-08-20T00:52:31;10.95;;;7.40;;
6388;SDS011;3227;42.654;23.360;2023-08-20T00:54:58;12.52;;;8.07;;
6388;SDS011;3227;42.654;23.360;2023-08-20T00:57:25;11.95;;;7.47;;
6388;SDS011;3227;42.654;23.360;2023-08-20T00:59:53;9.80;;;6.65;;
6388;SDS011;3227;42.654;23.360;2023-08-20T01:02:23;12.20;;;7.03;;
6388;SDS011;3227;42.654;23.360;2023-08-20T01:04:50;11.82;;;7.00;;
6388;SDS011;3227;42.654;23.360;2023-08-20T01:07:19;12.13;;;7.63;;
6388;SDS011;3227;42.654;23.360;2023-08-20T01:09:54;12.85;;;7.43;;
6388;SDS011;3227;42.654;23.360;2023-08-20T01:12:29;10.55;;;7.47;;
6388;SDS011;3227;42.654;23.360;2023-08-20T01:14:57;9.75;;;7.32;;
6388;SDS011;3227;42.654;23.360;2023-08-20T01:17:26;10.80;;;7.50;;
6388;SDS011;3227;42.654;23.360;2023-08-20T01:19:52;14.82;;;7.50;;
6388;SDS011;3227;42.654;23.360;2023-08-20T01:25:23;9.93;;;6.80;;
6388;SDS011;3227;42.654;23.360;2023-08-20T01:27:58;10.57;;;7.57;;
6388;SDS011;3227;42.654;23.360;2023-08-20T01:30:36;11.98;;;7.93;;
6388;SDS011;3227;42.654;23.360;2023-08-20T01:33:03;11.32;;;7.47;;
6388;SDS011;3227;42.654;23.360;2023-08-20T01:35:31;16.80;;;6.95;;
6388;SDS011;3227;42.654;23.360;2023-08-20T01:37:58;12.48;;;8.05;;
6388;SDS011;3227;42.654;23.360;2023-08-20T01:40:25;14.13;;;7.43;;
6388;SDS011;3227;42.654;23.360;2023-08-20T01:42:51;13.07;;;8.25;;
6388;SDS011;3227;42.654;23.360;2023-08-20T01:45:18;13.10;;;7.68;;
6388;SDS011;3227;42.654;23.360;2023-08-20T01:47:48;15.13;;;8.43;;
6388;SDS011;3227;42.654;23.360;2023-08-20T01:50:15;15.60;;;8.40;;
6388;SDS011;3227;42.654;23.360;2023-08-20T01:52:41;11.88;;;8.43;;
6388;SDS011;3227;42.654;23.360;2023-08-20T01:55:10;12.10;;;8.50;;
6388;SDS011;3227;42.654;23.360;2023-08-20T01:57:37;11.15;;;8.32;;
6388;SDS011;3227;42.654;23.360;2023-08-20T02:00:04;11.18;;;8.15;;
6388;SDS011;3227;42.654;23.360;2023-08-20T02:02:33;12.55;;;7.75;;
6388;SDS011;3227;42.654;23.360;2023-08-20T02:05:01;12.85;;;8.27;;
6388;SDS011;3227;42.654;23.360;2023-08-20T02:07:28;13.63;;;7.85;;
6388;SDS011;3227;42.654;23.360;2023-08-20T02:09:55;12.90;;;8.55;;
6388;SDS011;3227;42.654;23.360;2023-08-20T02:12:22;12.68;;;8.77;;
6388;SDS011;3227;42.654;23.360;2023-08-20T02:14:49;13.55;;;8.93;;
6388;SDS011;3227;42.654;23.360;2023-08-20T02:17:15;12.38;;;8.32;;
6388;SDS011;3227;42.654;23.360;2023-08-20T02:19:42;12.23;;;8.32;;
6388;SDS011;3227;42.654;23.360;2023-08-20T02:22:10;12.05;;;8.80;;
6388;SDS011;3227;42.654;23.360;2023-08-20T02:24:37;14.80;;;8.70;;
6388;SDS011;3227;42.654;23.360;2023-08-20T02:27:09;14.50;;;8.80;;
6388;SDS011;3227;42.654;23.360;2023-08-20T02:29:36;12.55;;;8.52;;
6388;SDS011;3227;42.654;23.360;2023-08-20T02:32:02;15.07;;;8.88;;
6388;SDS011;3227;42.654;23.360;2023-08-20T02:34:29;15.13;;;8.82;;
6388;SDS011;3227;42.654;23.360;2023-08-20T02:36:56;16.80;;;8.68;;
6388;SDS011;3227;42.654;23.360;2023-08-20T02:39:24;12.68;;;9.25;;
6388;SDS011;3227;42.654;23.360;2023-08-20T02:41:51;12.27;;;8.82;;
6388;SDS011;3227;42.654;23.360;2023-08-20T02:44:17;11.50;;;8.25;;
6388;SDS011;3227;42.654;23.360;2023-08-20T02:46:44;14.23;;;9.05;;
6388;SDS011;3227;42.654;23.360;2023-08-20T02:49:11;16.50;;;9.23;;
6388;SDS011;3227;42.654;23.360;2023-08-20T02:51:39;12.40;;;8.02;;
6388;SDS011;3227;42.654;23.360;2023-08-20T02:54:07;12.95;;;8.05;;
6388;SDS011;3227;42.654;23.360;2023-08-20T02:56:35;14.05;;;7.90;;
6388;SDS011;3227;42.654;23.360;2023-08-20T02:59:02;13.05;;;8.20;;
6388;SDS011;3227;42.654;23.360;2023-08-20T03:01:29;11.85;;;8.05;;
6388;SDS011;3227;42.654;23.360;2023-08-20T03:03:56;11.40;;;8.18;;
6388;SDS011;3227;42.654;23.360;2023-08-20T03:06:23;12.65;;;7.75;;
6388;SDS011;3227;42.654;23.360;2023-08-20T03:08:50;9.98;;;7.93;;
6388;SDS011;3227;42.654;23.360;2023-08-20T03:11:16;12.27;;;8.25;;
6388;SDS011;3227;42.654;23.360;2023-08-20T03:13:44;11.68;;;7.68;;
6388;SDS011;3227;42.654;23.360;2023-08-20T03:16:11;14.75;;;8.25;;
6388;SDS011;3227;42.654;23.360;2023-08-20T03:18:38;12.27;;;8.38;;
6388;SDS011;3227;42.654;23.360;2023-08-20T03:21:05;12.05;;;8.27;;
6388;SDS011;3227;42.654;23.360;2023-08-20T03:23:32;11.57;;;8.00;;
6388;SDS011;3227;42.654;23.360;2023-08-20T03:26:13;13.77;;;8.15;;
6388;SDS011;3227;42.654;23.360;2023-08-20T03:28:40;15.55;;;7.65;;
6388;SDS011;3227;42.654;23.360;2023-08-20T03:31:08;13.27;;;8.20;;
6388;SDS011;3227;42.654;23.360;2023-08-20T03:33:35;11.85;;;7.70;;
6388;SDS011;3227;42.654;23.360;2023-08-20T03:36:02;12.02;;;7.45;;
6388;SDS011;3227;42.654;23.360;2023-08-20T03:38:29;10.77;;;7.68;;
6388;SDS011;3227;42.654;23.360;2023-08-20T03:40:56;13.65;;;7.95;;
6388;SDS011;3227;42.654;23.360;2023-08-20T03:43:22;12.07;;;7.75;;
6388;SDS011;3227;42.654;23.360;2023-08-20T03:45:49;11.80;;;8.02;;
6388;SDS011;3227;42.654;23.360;2023-08-20T03:48:18;15.70;;;8.07;;
6388;SDS011;3227;42.654;23.360;2023-08-20T03:50:46;11.20;;;7.95;;
6388;SDS011;3227;42.654;23.360;2023-08-20T03:53:12;12.90;;;7.60;;
6388;SDS011;3227;42.654;23.360;2023-08-20T03:55:39;15.55;;;8.40;;
6388;SDS011;3227;42.654;23.360;2023-08-20T03:58:06;15.55;;;8.00;;
6388;SDS011;3227;42.654;23.360;2023-08-20T04:00:34;12.73;;;7.95;;
6388;SDS011;3227;42.654;23.360;2023-08-20T04:03:01;10.98;;;7.85;;
6388;SDS011;3227;42.654;23.360;2023-08-20T04:05:29;12.65;;;8.43;;
6388;SDS011;3227;42.654;23.360;2023-08-20T04:08:01;12.02;;;8.10;;
6388;SDS011;3227;42.654;23.360;2023-08-20T04:10:28;15.98;;;8.40;;
6388;SDS011;3227;42.654;23.360;2023-08-20T04:12:55;12.75;;;7.90;;
6388;SDS011;3227;42.654;23.360;2023-08-20T04:15:21;13.35;;;7.90;;
6388;SDS011;3227;42.654;23.360;2023-08-20T04:17:48;13.15;;;7.63;;
6388;SDS011;3227;42.654;23.360;2023-08-20T04:20:15;11.95;;;7.85;;
6388;SDS011;3227;42.654;23.360;2023-08-20T04:22:43;13.23;;;8.75;;
6388;SDS011;3227;42.654;23.360;2023-08-20T04:25:10;12.82;;;8.07;;
6388;SDS011;3227;42.654;23.360;2023-08-20T04:27:37;13.98;;;7.80;;
6388;SDS011;3227;42.654;23.360;2023-08-20T04:30:04;13.38;;;7.97;;
6388;SDS011;3227;42.654;23.360;2023-08-20T04:32:33;17.65;;;8.45;;
6388;SDS011;3227;42.654;23.360;2023-08-20T04:35:00;12.98;;;7.70;;
6388;SDS011;3227;42.654;23.360;2023-08-20T04:37:26;12.40;;;7.85;;
6388;SDS011;3227;42.654;23.360;2023-08-20T04:39:55;11.65;;;7.80;;
6388;SDS011;3227;42.654;23.360;2023-08-20T04:42:21;18.73;;;8.23;;
6388;SDS011;3227;42.654;23.360;2023-08-20T04:44:48;11.75;;;7.60;;
6388;SDS011;3227;42.654;23.360;2023-08-20T04:47:15;13.65;;;7.55;;
6388;SDS011;3227;42.654;23.360;2023-08-20T04:49:42;16.92;;;7.63;;
6388;SDS011;3227;42.654;23.360;2023-08-20T04:52:09;12.13;;;7.65;;
6388;SDS011;3227;42.654;23.360;2023-08-20T04:54:36;20.90;;;7.93;;
6388;SDS011;3227;42.654;23.360;2023-08-20T04:57:04;13.80;;;8.13;;
6388;SDS011;3227;42.654;23.360;2023-08-20T04:59:31;12.48;;;7.88;;
6388;SDS011;3227;42.654;23.360;2023-08-20T05:01:58;18.25;;;7.70;;
6388;SDS011;3227;42.654;23.360;2023-08-20T05:04:25;17.40;;;7.97;;
6388;SDS011;3227;42.654;23.360;2023-08-20T05:06:51;17.15;;;7.60;;
6388;SDS011;3227;42.654;23.360;2023-08-20T05:09:18;18.83;;;7.60;;
6388;SDS011;3227;42.654;23.360;2023-08-20T05:11:45;13.57;;;7.65;;
6388;SDS011;3227;42.654;23.360;2023-08-20T05:14:13;11.95;;;6.93;;
6388;SDS011;3227;42.654;23.360;2023-08-20T05:16:40;12.10;;;7.28;;
6388;SDS011;3227;42.654;23.360;2023-08-20T05:19:07;12.07;;;7.95;;
6388;SDS011;3227;42.654;23.360;2023-08-20T05:21:34;13.10;;;8.18;;
6388;SDS011;3227;42.654;23.360;2023-08-20T05:24:00;12.23;;;7.50;;
6388;SDS011;3227;42.654;23.360;2023-08-20T05:26:37;12.30;;;8.15;;
6388;SDS011;3227;42.654;23.360;2023-08-20T05:29:04;14.18;;;8.25;;
6388;SDS011;3227;42.654;23.360;2023-08-20T05:31:33;13.82;;;7.88;;
6388;SDS011;3227;42.654;23.360;2023-08-20T05:34:01;11.73;;;8.05;;
6388;SDS011;3227;42.654;23.360;2023-08-20T05:36:29;11.80;;;7.47;;
6388;SDS011;3227;42.654;23.360;2023-08-20T05:38:56;15.50;;;8.60;;
6388;SDS011;3227;42.654;23.360;2023-08-20T05:41:23;14.38;;;8.00;;
6388;SDS011;3227;42.654;23.360;2023-08-20T05:43:50;13.23;;;7.88;;
6388;SDS011;3227;42.654;23.360;2023-08-20T05:46:16;12.75;;;8.07;;
6388;SDS011;3227;42.654;23.360;2023-08-20T05:48:44;11.82;;;7.93;;
6388;SDS011;3227;42.654;23.360;2023-08-20T05:51:11;15.95;;;8.40;;
6388;SDS011;3227;42.654;23.360;2023-08-20T05:53:38;10.77;;;7.88;;
6388;SDS011;3227;42.654;23.360;2023-08-20T05:56:05;14.27;;;8.98;;
6388;SDS011;3227;42.654;23.360;2023-08-20T05:58:31;12.05;;;7.80;;
6388;SDS011;3227;42.654;23.360;2023-08-20T06:00:58;12.98;;;7.80;;
6388;SDS011;3227;42.654;23.360;2023-08-20T06:03:25;13.40;;;8.00;;
6388;SDS011;3227;42.654;23.360;2023-08-20T06:05:53;11.45;;;7.78;;
6388;SDS011;3227;42.654;23.360;2023-08-20T06:08:20;14.05;;;7.47;;
6388;SDS011;3227;42.654;23.360;2023-08-20T06:10:46;14.73;;;7.38;;
6388;SDS011;3227;42.654;23.360;2023-08-20T06:13:13;10.25;;;7.45;;
6388;SDS011;3227;42.654;23.360;2023-08-20T06:15:45;15.88;;;7.72;;
6388;SDS011;3227;42.654;23.360;2023-08-20T06:18:12;10.45;;;7.25;;
6388;SDS011;3227;42.654;23.360;2023-08-20T06:20:38;14.00;;;7.40;;
6388;SDS011;3227;42.654;23.360;2023-08-20T06:23:07;13.45;;;7.70;;
6388;SDS011;3227;42.654;23.360;2023-08-20T06:25:33;12.30;;;7.40;;
6388;SDS011;3227;42.654;23.360;2023-08-20T06:28:00;12.05;;;7.55;;
6388;SDS011;3227;42.654;23.360;2023-08-20T06:30:27;14.88;;;7.60;;
6388;SDS011;3227;42.654;23.360;2023-08-20T06:32:53;12.73;;;7.28;;
6388;SDS011;3227;42.654;23.360;2023-08-20T06:35:20;14.23;;;7.13;;
6388;SDS011;3227;42.654;23.360;2023-08-20T06:37:47;15.52;;;8.15;;
6388;SDS011;3227;42.654;23.360;2023-08-20T06:40:15;17.27;;;7.80;;
6388;SDS011;3227;42.654;23.360;2023-08-20T06:42:42;11.23;;;7.88;;
6388;SDS011;3227;42.654;23.360;2023-08-20T06:45:09;10.35;;;7.43;;
6388;SDS011;3227;42.654;23.360;2023-08-20T06:47:36;13.18;;;7.72;;
6388;SDS011;3227;42.654;23.360;2023-08-20T06:50:03;12.45;;;7.38;;
6388;SDS011;3227;42.654;23.360;2023-08-20T06:52:31;13.52;;;7.45;;
6388;SDS011;3227;42.654;23.360;2023-08-20T06:54:58;12.95;;;6.95;;
6388;SDS011;3227;42.654;23.360;2023-08-20T06:57:26;18.08;;;7.30;;
6388;SDS011;3227;42.654;23.360;2023-08-20T06:59:53;11.20;;;6.80;;
6388;SDS011;3227;42.654;23.360;2023-08-20T07:02:19;12.45;;;6.50;;
6388;SDS011;3227;42.654;23.360;2023-08-20T07:04:46;10.63;;;5.95;;
6388;SDS011;3227;42.654;23.360;2023-08-20T07:07:13;10.02;;;6.53;;
6388;SDS011;3227;42.654;23.360;2023-08-20T07:09:41;9.57;;;6.60;;
6388;SDS011;3227;42.654;23.360;2023-08-20T07:12:07;11.15;;;6.65;;
6388;SDS011;3227;42.654;23.360;2023-08-20T07:14:36;10.02;;;6.45;;
6388;SDS011;3227;42.654;23.360;2023-08-20T07:17:03;11.20;;;6.97;;
6388;SDS011;3227;42.654;23.360;2023-08-20T07:19:30;9.93;;;5.82;;
6388;SDS011;3227;42.654;23.360;2023-08-20T07:21:57;12.43;;;6.53;;
6388;SDS011;3227;42.654;23.360;2023-08-20T07:24:24;9.45;;;6.28;;
6388;SDS011;3227;42.654;23.360;2023-08-20T07:26:51;10.48;;;6.40;;
6388;SDS011;3227;42.654;23.360;2023-08-20T07:29:24;11.75;;;6.57;;
6388;SDS011;3227;42.654;23.360;2023-08-20T07:31:52;12.32;;;6.18;;
6388;SDS011;3227;42.654;23.360;2023-08-20T07:34:19;10.00;;;5.90;;
6388;SDS011;3227;42.654;23.360;2023-08-20T07:36:55;9.93;;;5.82;;
6388;SDS011;3227;42.654;23.360;2023-08-20T07:39:23;8.57;;;5.97;;
6388;SDS011;3227;42.654;23.360;2023-08-20T07:41:49;10.73;;;5.55;;
6388;SDS011;3227;42.654;23.360;2023-08-20T07:44:16;9.20;;;5.88;;
6388;SDS011;3227;42.654;23.360;2023-08-20T07:46:43;10.98;;;6.30;;
6388;SDS011;3227;42.654;23.360;2023-08-20T07:49:11;9.93;;;6.35;;
6388;SDS011;3227;42.654;23.360;2023-08-20T07:51:38;9.48;;;6.05;;
6388;SDS011;3227;42.654;23.360;2023-08-20T07:54:05;13.73;;;6.43;;
6388;SDS011;3227;42.654;23.360;2023-08-20T07:56:31;10.65;;;6.20;;
6388;SDS011;3227;42.654;23.360;2023-08-20T07:58:58;10.25;;;6.38;;
6388;SDS011;3227;42.654;23.360;2023-08-20T08:01:25;8.45;;;5.90;;
6388;SDS011;3227;42.654;23.360;2023-08-20T08:03:52;10.55;;;6.05;;
6388;SDS011;3227;42.654;23.360;2023-08-20T08:06:20;12.43;;;5.75;;
6388;SDS011;3227;42.654;23.360;2023-08-20T08:08:48;8.82;;;5.90;;
6388;SDS011;3227;42.654;23.360;2023-08-20T08:11:15;9.80;;;5.60;;
6388;SDS011;3227;42.654;23.360;2023-08-20T08:13:42;9.82;;;5.40;;
6388;SDS011;3227;42.654;23.360;2023-08-20T08:16:09;9.05;;;5.38;;
6388;SDS011;3227;42.654;23.360;2023-08-20T08:18:36;6.82;;;4.90;;
6388;SDS011;3227;42.654;23.360;2023-08-20T08:21:02;11.77;;;5.30;;
6388;SDS011;3227;42.654;23.360;2023-08-20T08:23:30;8.75;;;5.07;;
6388;SDS011;3227;42.654;23.360;2023-08-20T08:25:57;14.25;;;5.75;;
6388;SDS011;3227;42.654;23.360;2023-08-20T08:28:24;8.40;;;5.05;;
6388;SDS011;3227;42.654;23.360;2023-08-20T08:30:51;8.95;;;5.75;;
6388;SDS011;3227;42.654;23.360;2023-08-20T08:33:18;7.03;;;4.63;;
6388;SDS011;3227;42.654;23.360;2023-08-20T08:35:45;10.27;;;5.47;;
6388;SDS011;3227;42.654;23.360;2023-08-20T08:38:11;8.68;;;4.85;;
6388;SDS011;3227;42.654;23.360;2023-08-20T08:40:39;10.98;;;4.82;;
6388;SDS011;3227;42.654;23.360;2023-08-20T08:43:08;8.63;;;4.88;;
6388;SDS011;3227;42.654;23.360;2023-08-20T08:45:41;8.77;;;4.65;;
6388;SDS011;3227;42.654;23.360;2023-08-20T08:48:12;10.95;;;5.25;;
6388;SDS011;3227;42.654;23.360;2023-08-20T08:50:39;7.90;;;4.40;;
6388;SDS011;3227;42.654;23.360;2023-08-20T08:53:09;6.93;;;3.95;;
6388;SDS011;3227;42.654;23.360;2023-08-20T08:55:36;7.18;;;4.40;;
6388;SDS011;3227;42.654;23.360;2023-08-20T08:58:05;7.55;;;4.60;;
6388;SDS011;3227;42.654;23.360;2023-08-20T09:00:32;7.50;;;4.57;;
6388;SDS011;3227;42.654;23.360;2023-08-20T09:02:58;8.95;;;4.38;;
6388;SDS011;3227;42.654;23.360;2023-08-20T09:05:30;9.20;;;4.60;;
6388;SDS011;3227;42.654;23.360;2023-08-20T09:07:57;6.50;;;4.57;;
6388;SDS011;3227;42.654;23.360;2023-08-20T09:10:25;6.93;;;4.47;;
6388;SDS011;3227;42.654;23.360;2023-08-20T09:12:54;9.32;;;4.60;;
6388;SDS011;3227;42.654;23.360;2023-08-20T09:15:24;8.65;;;4.60;;
6388;SDS011;3227;42.654;23.360;2023-08-20T09:17:59;10.00;;;4.40;;
6388;SDS011;3227;42.654;23.360;2023-08-20T09:20:33;7.47;;;4.13;;
6388;SDS011;3227;42.654;23.360;2023-08-20T09:23:00;6.95;;;3.85;;
6388;SDS011;3227;42.654;23.360;2023-08-20T09:25:27;10.05;;;4.32;;
6388;SDS011;3227;42.654;23.360;2023-08-20T09:27:54;9.32;;;4.55;;
6388;SDS011;3227;42.654;23.360;2023-08-20T09:30:21;6.07;;;3.85;;
6388;SDS011;3227;42.654;23.360;2023-08-20T09:33:02;9.80;;;4.03;;
6388;SDS011;3227;42.654;23.360;2023-08-20T09:35:29;6.82;;;4.10;;
6388;SDS011;3227;42.654;23.360;2023-08-20T09:37:58;7.63;;;4.05;;
6388;SDS011;3227;42.654;23.360;2023-08-20T09:40:26;6.65;;;4.00;;
6388;SDS011;3227;42.654;23.360;2023-08-20T09:42:53;6.95;;;4.53;;
6388;SDS011;3227;42.654;23.360;2023-08-20T09:45:24;6.82;;;4.50;;
6388;SDS011;3227;42.654;23.360;2023-08-20T09:47:54;7.88;;;4.55;;
6388;SDS011;3227;42.654;23.360;2023-08-20T09:50:22;7.68;;;3.90;;
6388;SDS011;3227;42.654;23.360;2023-08-20T09:52:58;11.35;;;3.80;;
6388;SDS011;3227;42.654;23.360;2023-08-20T09:55:32;6.57;;;3.72;;
6388;SDS011;3227;42.654;23.360;2023-08-20T09:58:00;7.38;;;3.40;;
6388;SDS011;3227;42.654;23.360;2023-08-20T10:00:29;6.00;;;3.60;;
6388;SDS011;3227;42.654;23.360;2023-08-20T10:02:57;6.85;;;3.80;;
6388;SDS011;3227;42.654;23.360;2023-08-20T10:05:24;7.68;;;3.72;;
6388;SDS011;3227;42.654;23.360;2023-08-20T10:07:52;6.40;;;3.65;;
6388;SDS011;3227;42.654;23.360;2023-08-20T10:10:19;7.15;;;3.75;;
6388;SDS011;3227;42.654;23.360;2023-08-20T10:12:45;6.13;;;3.33;;
6388;SDS011;3227;42.654;23.360;2023-08-20T10:15:13;6.45;;;3.40;;
6388;SDS011;3227;42.654;23.360;2023-08-20T10:17:42;6.35;;;3.80;;
6388;SDS011;3227;42.654;23.360;2023-08-20T10:20:13;6.18;;;3.90;;
6388;SDS011;3227;42.654;23.360;2023-08-20T10:22:42;7.07;;;3.97;;
6388;SDS011;3227;42.654;23.360;2023-08-20T10:25:10;6.07;;;3.88;;
6388;SDS011;3227;42.654;23.360;2023-08-20T10:27:39;7.47;;;3.83;;
6388;SDS011;3227;42.654;23.360;2023-08-20T10:30:08;6.15;;;3.80;;
6388;SDS011;3227;42.654;23.360;2023-08-20T10:32:45;6.65;;;3.70;;
6388;SDS011;3227;42.654;23.360;2023-08-20T10:35:16;7.55;;;3.90;;
6388;SDS011;3227;42.654;23.360;2023-08-20T10:38:02;9.50;;;4.10;;
6388;SDS011;3227;42.654;23.360;2023-08-20T10:43:28;6.38;;;4.05;;
6388;SDS011;3227;42.654;23.360;2023-08-20T10:46:06;6.82;;;4.10;;
6388;SDS011;3227;42.654;23.360;2023-08-20T10:48:46;8.30;;;4.07;;
6388;SDS011;3227;42.654;23.360;2023-08-20T10:51:14;6.28;;;3.88;;
6388;SDS011;3227;42.654;23.360;2023-08-20T10:53:42;6.25;;;3.78;;
6388;SDS011;3227;42.654;23.360;2023-08-20T10:56:10;7.55;;;4.22;;
6388;SDS011;3227;42.654;23.360;2023-08-20T10:58:42;7.20;;;4.50;;
6388;SDS011;3227;42.654;23.360;2023-08-20T11:01:14;6.68;;;4.05;;
6388;SDS011;3227;42.654;23.360;2023-08-20T11:03:42;6.22;;;4.10;;
6388;SDS011;3227;42.654;23.360;2023-08-20T11:06:11;17.50;;;3.80;;
6388;SDS011;3227;42.654;23.360;2023-08-20T11:08:38;9.35;;;4.22;;
6388;SDS011;3227;42.654;23.360;2023-08-20T11:11:05;9.07;;;4.00;;
6388;SDS011;3227;42.654;23.360;2023-08-20T11:13:33;8.15;;;3.88;;
6388;SDS011;3227;42.654;23.360;2023-08-20T11:16:01;8.80;;;3.78;;
6388;SDS011;3227;42.654;23.360;2023-08-20T11:18:29;6.53;;;4.30;;
6388;SDS011;3227;42.654;23.360;2023-08-20T11:20:58;9.18;;;4.25;;
6388;SDS011;3227;42.654;23.360;2023-08-20T11:23:25;7.50;;;4.03;;
6388;SDS011;3227;42.654;23.360;2023-08-20T11:25:52;7.20;;;4.30;;
6388;SDS011;3227;42.654;23.360;2023-08-20T11:28:19;9.40;;;3.97;;
6388;SDS011;3227;42.654;23.360;2023-08-20T11:30:46;6.35;;;4.10;;
6388;SDS011;3227;42.654;23.360;2023-08-20T11:33:14;8.65;;;3.92;;
6388;SDS011;3227;42.654;23.360;2023-08-20T11:35:42;7.22;;;4.32;;
6388;SDS011;3227;42.654;23.360;2023-08-20T11:38:10;7.78;;;4.18;;
6388;SDS011;3227;42.654;23.360;2023-08-20T11:40:38;7.93;;;4.25;;
6388;SDS011;3227;42.654;23.360;2023-08-20T11:43:05;6.25;;;3.80;;
6388;SDS011;3227;42.654;23.360;2023-08-20T11:45:32;7.65;;;4.20;;
6388;SDS011;3227;42.654;23.360;2023-08-20T11:48:09;9.77;;;4.32;;
6388;SDS011;3227;42.654;23.360;2023-08-20T11:50:36;6.95;;;4.00;;
6388;SDS011;3227;42.654;23.360;2023-08-20T11:53:03;8.00;;;4.10;;
6388;SDS011;3227;42.654;23.360;2023-08-20T11:55:31;7.32;;;4.32;;
6388;SDS011;3227;42.654;23.360;2023-08-20T11:57:58;8.98;;;4.13;;
6388;SDS011;3227;42.654;23.360;2023-08-20T12:00:26;8.13;;;4.18;;
6388;SDS011;3227;42.654;23.360;2023-08-20T12:02:54;8.65;;;4.45;;
6388;SDS011;3227;42.654;23.360;2023-08-20T12:05:21;7.57;;;4.43;;
6388;SDS011;3227;42.654;23.360;2023-08-20T12:07:55;8.90;;;4.45;;
6388;SDS011;3227;42.654;23.360;2023-08-20T12:10:23;8.15;;;4.55;;
6388;SDS011;3227;42.654;23.360;2023-08-20T12:12:52;7.38;;;4.20;;
6388;SDS011;3227;42.654;23.360;2023-08-20T12:15:19;7.03;;;3.97;;
6388;SDS011;3227;42.654;23.360;2023-08-20T12:17:55;6.25;;;3.83;;
6388;SDS011;3227;42.654;23.360;2023-08-20T12:20:26;7.57;;;4.00;;
6388;SDS011;3227;42.654;23.360;2023-08-20T12:22:56;7.72;;;4.13;;
6388;SDS011;3227;42.654;23.360;2023-08-20T12:25:24;6.78;;;3.95;;
6388;SDS011;3227;42.654;23.360;2023-08-20T12:27:52;7.07;;;4.18;;
6388;SDS011;3227;42.654;23.360;2023-08-20T12:30:19;9.63;;;4.57;;
6388;SDS011;3227;42.654;23.360;2023-08-20T12:32:46;7.10;;;4.10;;
6388;SDS011;3227;42.654;23.360;2023-08-20T12:35:13;6.63;;;3.70;;
6388;SDS011;3227;42.654;23.360;2023-08-20T12:37:40;6.20;;;4.07;;
6388;SDS011;3227;42.654;23.360;2023-08-20T12:40:07;9.70;;;4.50;;
6388;SDS011;3227;42.654;23.360;2023-08-20T12:42:37;8.48;;;4.13;;
6388;SDS011;3227;42.654;23.360;2023-08-20T12:45:06;9.73;;;4.28;;
6388;SDS011;3227;42.654;23.360;2023-08-20T12:47:33;10.25;;;4.60;;
6388;SDS011;3227;42.654;23.360;2023-08-20T12:50:00;7.82;;;4.43;;
6388;SDS011;3227;42.654;23.360;2023-08-20T12:52:28;6.75;;;4.22;;
6388;SDS011;3227;42.654;23.360;2023-08-20T12:54:55;8.13;;;4.20;;
6388;SDS011;3227;42.654;23.360;2023-08-20T12:57:21;10.70;;;4.70;;
6388;SDS011;3227;42.654;23.360;2023-08-20T12:59:48;6.88;;;3.85;;
6388;SDS011;3227;42.654;23.360;2023-08-20T13:02:17;10.63;;;3.80;;
6388;SDS011;3227;42.654;23.360;2023-08-20T13:04:45;9.25;;;4.60;;
6388;SDS011;3227;42.654;23.360;2023-08-20T13:07:13;9.50;;;4.10;;
6388;SDS011;3227;42.654;23.360;2023-08-20T13:09:40;7.25;;;4.15;;
6388;SDS011;3227;42.654;23.360;2023-08-20T13:12:07;10.80;;;4.65;;
6388;SDS011;3227;42.654;23.360;2023-08-20T13:14:37;6.85;;;4.00;;
6388;SDS011;3227;42.654;23.360;2023-08-20T13:17:05;6.95;;;3.97;;
6388;SDS011;3227;42.654;23.360;2023-08-20T13:19:34;8.52;;;4.40;;
6388;SDS011;3227;42.654;23.360;2023-08-20T13:22:01;7.72;;;3.97;;
6388;SDS011;3227;42.654;23.360;2023-08-20T13:24:28;7.20;;;4.28;;
6388;SDS011;3227;42.654;23.360;2023-08-20T13:26:55;10.05;;;4.50;;
6388;SDS011;3227;42.654;23.360;2023-08-20T13:29:21;7.72;;;4.35;;
6388;SDS011;3227;42.654;23.360;2023-08-20T13:31:48;9.38;;;4.65;;
6388;SDS011;3227;42.654;23.360;2023-08-20T13:34:15;6.65;;;4.13;;
6388;SDS011;3227;42.654;23.360;2023-08-20T13:36:43;7.85;;;3.95;;
6388;SDS011;3227;42.654;23.360;2023-08-20T13:39:11;7.05;;;4.10;;
6388;SDS011;3227;42.654;23.360;2023-08-20T13:41:39;12.90;;;4.45;;
6388;SDS011;3227;42.654;23.360;2023-08-20T13:44:06;9.70;;;4.22;;
6388;SDS011;3227;42.654;23.360;2023-08-20T13:46:33;7.07;;;4.20;;
6388;SDS011;3227;42.654;23.360;2023-08-20T13:49:00;6.97;;;3.83;;
6388;SDS011;3227;42.654;23.360;2023-08-20T13:51:27;6.22;;;4.00;;
6388;SDS011;3227;42.654;23.360;2023-08-20T13:53:56;8.27;;;4.07;;
6388;SDS011;3227;42.654;23.360;2023-08-20T13:56:23;9.13;;;4.88;;
6388;SDS011;3227;42.654;23.360;2023-08-20T13:58:50;7.80;;;3.72;;
6388;SDS011;3227;42.654;23.360;2023-08-20T14:01:17;7.00;;;3.78;;
6388;SDS011;3227;42.654;23.360;2023-08-20T14:03:44;8.93;;;4.10;;
6388;SDS011;3227;42.654;23.360;2023-08-20T14:09:04;10.35;;;4.10;;
6388;SDS011;3227;42.654;23.360;2023-08-20T14:11:31;10.55;;;4.25;;
6388;SDS011;3227;42.654;23.360;2023-08-20T14:13:58;8.65;;;3.92;;
6388;SDS011;3227;42.654;23.360;2023-08-20T14:16:25;6.68;;;4.03;;
6388;SDS011;3227;42.654;23.360;2023-08-20T14:18:52;6.82;;;4.10;;
6388;SDS011;3227;42.654;23.360;2023-08-20T14:21:18;9.68;;;4.10;;
6388;SDS011;3227;42.654;23.360;2023-08-20T14:23:45;6.90;;;4.00;;
6388;SDS011;3227;42.654;23.360;2023-08-20T14:26:13;11.13;;;4.10;;
6388;SDS011;3227;42.654;23.360;2023-08-20T14:28:40;6.43;;;4.10;;
6388;SDS011;3227;42.654;23.360;2023-08-20T14:31:08;8.48;;;3.78;;
6388;SDS011;3227;42.654;23.360;2023-08-20T14:33:35;7.72;;;3.53;;
6388;SDS011;3227;42.654;23.360;2023-08-20T14:36:02;7.13;;;4.10;;
6388;SDS011;3227;42.654;23.360;2023-08-20T14:38:29;9.50;;;3.92;;
6388;SDS011;3227;42.654;23.360;2023-08-20T14:40:59;6.15;;;3.95;;
6388;SDS011;3227;42.654;23.360;2023-08-20T14:43:27;6.43;;;3.75;;
6388;SDS011;3227;42.654;23.360;2023-08-20T14:45:55;5.70;;;3.50;;
6388;SDS011;3227;42.654;23.360;2023-08-20T14:48:22;6.68;;;4.00;;
6388;SDS011;3227;42.654;23.360;2023-08-20T14:50:49;7.45;;;4.05;;
6388;SDS011;3227;42.654;23.360;2023-08-20T14:53:16;8.07;;;3.58;;
6388;SDS011;3227;42.654;23.360;2023-08-20T14:55:42;8.18;;;3.65;;
6388;SDS011;3227;42.654;23.360;2023-08-20T14:58:09;6.07;;;3.60;;
6388;SDS011;3227;42.654;23.360;2023-08-20T15:00:38;5.85;;;3.42;;
6388;SDS011;3227;42.654;23.360;2023-08-20T15:03:04;5.85;;;3.72;;
6388;SDS011;3227;42.654;23.360;2023-08-20T15:05:38;7.68;;;3.72;;